sensor_id;sensor_type;location;lat;lon;timestamp;temperature;humidity
6443;DHT22;3254;47.372;8.512;2022-09-17T00:01:19;10.20;20.30
6443;DHT22;3254;47.372;8.512;2022-09-17T00:03:49;10.20;21.80
6443;DHT22;3254;47.372;8.512;2022-09-17T00:06:15;10.20;19.50
6443;DHT22;3254;47.372;8.512;2022-09-17T00:08:40;10.20;21.10
6443;DHT22;3254;47.372;8.512;2022-09-17T00:13:36;10.20;23.00
6443;DHT22;3254;47.372;8.512;2022-09-17T00:16:02;10.20;21.10
6443;DHT22;3254;47.372;8.512;2022-09-17T00:18:28;10.20;17.30
6443;DHT22;3254;47.372;8.512;2022-09-17T00:20:53;10.20;18.60
6443;DHT22;3254;47.372;8.512;2022-09-17T00:23:19;10.20;16.90
6443;DHT22;3254;47.372;8.512;2022-09-17T00:25:45;10.20;17.40
6443;DHT22;3254;47.372;8.512;2022-09-17T00:28:14;10.20;16.10
6443;DHT22;3254;47.372;8.512;2022-09-17T00:30:41;10.20;15.30
6443;DHT22;3254;47.372;8.512;2022-09-17T00:33:07;10.20;15.70
6443;DHT22;3254;47.372;8.512;2022-09-17T00:35:33;10.20;15.80
6443;DHT22;3254;47.372;8.512;2022-09-17T00:37:59;10.20;16.40
6443;DHT22;3254;47.372;8.512;2022-09-17T00:40:25;10.20;15.70
6443;DHT22;3254;47.372;8.512;2022-09-17T00:42:50;10.20;14.10
6443;DHT22;3254;47.372;8.512;2022-09-17T00:45:18;10.30;13.60
6443;DHT22;3254;47.372;8.512;2022-09-17T00:47:47;10.30;13.60
6443;DHT22;3254;47.372;8.512;2022-09-17T00:50:41;10.30;12.20
6443;DHT22;3254;47.372;8.512;2022-09-17T00:53:14;10.40;11.70
6443;DHT22;3254;47.372;8.512;2022-09-17T00:56:05;10.40;12.30
6443;DHT22;3254;47.372;8.512;2022-09-17T00:58:34;10.40;11.70
6443;DHT22;3254;47.372;8.512;2022-09-17T01:01:01;10.40;11.70
6443;DHT22;3254;47.372;8.512;2022-09-17T01:03:26;10.40;9.20
6443;DHT22;3254;47.372;8.512;2022-09-17T01:06:13;10.40;8.40
6443;DHT22;3254;47.372;8.512;2022-09-17T01:08:55;10.40;9.20
6443;DHT22;3254;47.372;8.512;2022-09-17T01:25:28;10.30;6.30
6443;DHT22;3254;47.372;8.512;2022-09-17T01:31:29;10.30;7.70
6443;DHT22;3254;47.372;8.512;2022-09-17T01:36:45;10.20;8.70
6443;DHT22;3254;47.372;8.512;2022-09-17T01:39:28;10.20;7.50
6443;DHT22;3254;47.372;8.512;2022-09-17T01:42:14;10.20;7.80
6443;DHT22;3254;47.372;8.512;2022-09-17T01:45:26;10.20;7.60
6443;DHT22;3254;47.372;8.512;2022-09-17T01:47:41;10.20;7.30
6443;DHT22;3254;47.372;8.512;2022-09-17T01:50:15;10.20;7.00
6443;DHT22;3254;47.372;8.512;2022-09-17T01:52:43;10.20;6.90
6443;DHT22;3254;47.372;8.512;2022-09-17T01:55:14;10.20;8.00
6443;DHT22;3254;47.372;8.512;2022-09-17T01:57:47;10.20;8.30
6443;DHT22;3254;47.372;8.512;2022-09-17T02:00:14;10.00;9.60
6443;DHT22;3254;47.372;8.512;2022-09-17T02:03:05;10.00;10.30
6443;DHT22;3254;47.372;8.512;2022-09-17T02:06:01;9.90;11.90
6443;DHT22;3254;47.372;8.512;2022-09-17T02:08:35;9.90;11.90
6443;DHT22;3254;47.372;8.512;2022-09-17T02:11:08;9.80;11.90
6443;DHT22;3254;47.372;8.512;2022-09-17T02:13:53;9.80;12.30
6443;DHT22;3254;47.372;8.512;2022-09-17T02:16:32;9.80;14.30
6443;DHT22;3254;47.372;8.512;2022-09-17T02:19:12;9.80;13.70
6443;DHT22;3254;47.372;8.512;2022-09-17T02:21:52;9.80;14.00
6443;DHT22;3254;47.372;8.512;2022-09-17T02:24:23;9.80;14.00
6443;DHT22;3254;47.372;8.512;2022-09-17T02:27:06;9.80;13.50
6443;DHT22;3254;47.372;8.512;2022-09-17T02:29:41;9.70;14.50
6443;DHT22;3254;47.372;8.512;2022-09-17T02:32:08;9.70;15.30
6443;DHT22;3254;47.372;8.512;2022-09-17T02:34:34;9.50;18.40
6443;DHT22;3254;47.372;8.512;2022-09-17T02:37:00;9.50;19.50
6443;DHT22;3254;47.372;8.512;2022-09-17T02:39:27;9.40;19.00
6443;DHT22;3254;47.372;8.512;2022-09-17T03:01:43;8.80;35.60
6443;DHT22;3254;47.372;8.512;2022-09-17T03:04:14;8.80;37.00
6443;DHT22;3254;47.372;8.512;2022-09-17T03:06:44;8.80;38.60
6443;DHT22;3254;47.372;8.512;2022-09-17T03:09:10;8.80;39.30
6443;DHT22;3254;47.372;8.512;2022-09-17T03:11:35;8.70;40.50
6443;DHT22;3254;47.372;8.512;2022-09-17T03:14:01;8.70;42.70
6443;DHT22;3254;47.372;8.512;2022-09-17T03:16:27;8.60;45.50
6443;DHT22;3254;47.372;8.512;2022-09-17T03:18:52;8.60;47.30
6443;DHT22;3254;47.372;8.512;2022-09-17T03:21:18;8.70;49.10
6443;DHT22;3254;47.372;8.512;2022-09-17T03:23:45;8.60;50.60
6443;DHT22;3254;47.372;8.512;2022-09-17T03:26:11;8.50;52.40
6443;DHT22;3254;47.372;8.512;2022-09-17T03:28:37;8.50;57.80
6443;DHT22;3254;47.372;8.512;2022-09-17T03:31:02;8.50;56.70
6443;DHT22;3254;47.372;8.512;2022-09-17T03:33:30;8.40;58.40
6443;DHT22;3254;47.372;8.512;2022-09-17T03:35:56;8.30;64.90
6443;DHT22;3254;47.372;8.512;2022-09-17T03:38:22;8.20;70.00
6443;DHT22;3254;47.372;8.512;2022-09-17T03:41:01;8.20;73.70
6443;DHT22;3254;47.372;8.512;2022-09-17T03:43:28;8.10;75.60
6443;DHT22;3254;47.372;8.512;2022-09-17T03:45:54;8.00;81.10
6443;DHT22;3254;47.372;8.512;2022-09-17T03:48:20;8.00;87.80
6443;DHT22;3254;47.372;8.512;2022-09-17T03:50:45;8.00;87.30
6443;DHT22;3254;47.372;8.512;2022-09-17T03:53:11;8.00;84.00
6443;DHT22;3254;47.372;8.512;2022-09-17T03:55:37;7.90;86.80
6443;DHT22;3254;47.372;8.512;2022-09-17T03:58:03;7.80;91.60
6443;DHT22;3254;47.372;8.512;2022-09-17T04:00:29;7.80;93.60
6443;DHT22;3254;47.372;8.512;2022-09-17T04:02:55;7.70;94.20
6443;DHT22;3254;47.372;8.512;2022-09-17T04:05:21;7.60;97.30
6443;DHT22;3254;47.372;8.512;2022-09-17T04:07:46;7.50;99.60
6443;DHT22;3254;47.372;8.512;2022-09-17T04:10:12;7.50;99.90
6443;DHT22;3254;47.372;8.512;2022-09-17T04:12:38;7.50;99.90
6443;DHT22;3254;47.372;8.512;2022-09-17T04:15:04;7.50;99.90
6443;DHT22;3254;47.372;8.512;2022-09-17T04:17:30;7.50;99.90
6443;DHT22;3254;47.372;8.512;2022-09-17T04:19:56;7.60;99.90
6443;DHT22;3254;47.372;8.512;2022-09-17T04:22:23;7.70;99.90
6443;DHT22;3254;47.372;8.512;2022-09-17T04:24:48;7.80;99.90
6443;DHT22;3254;47.372;8.512;2022-09-17T04:27:14;7.90;99.90
6443;DHT22;3254;47.372;8.512;2022-09-17T04:29:40;8.00;99.90
6443;DHT22;3254;47.372;8.512;2022-09-17T04:32:05;8.10;99.90
6443;DHT22;3254;47.372;8.512;2022-09-17T04:34:31;8.10;99.90
6443;DHT22;3254;47.372;8.512;2022-09-17T04:36:57;8.20;99.60
6443;DHT22;3254;47.372;8.512;2022-09-17T04:39:23;8.30;96.50
6443;DHT22;3254;47.372;8.512;2022-09-17T04:41:49;8.30;94.20
6443;DHT22;3254;47.372;8.512;2022-09-17T04:44:14;8.50;90.30
6443;DHT22;3254;47.372;8.512;2022-09-17T04:46:40;8.50;83.40
6443;DHT22;3254;47.372;8.512;2022-09-17T04:49:05;8.70;72.20
6443;DHT22;3254;47.372;8.512;2022-09-17T04:51:32;8.70;67.60
6443;DHT22;3254;47.372;8.512;2022-09-17T04:53:57;8.70;63.70
6443;DHT22;3254;47.372;8.512;2022-09-17T04:56:23;8.80;58.40
6443;DHT22;3254;47.372;8.512;2022-09-17T04:58:48;8.70;60.10
6443;DHT22;3254;47.372;8.512;2022-09-17T05:01:14;8.70;58.80
6443;DHT22;3254;47.372;8.512;2022-09-17T05:03:43;8.60;58.00
6443;DHT22;3254;47.372;8.512;2022-09-17T05:06:09;8.50;59.40
6443;DHT22;3254;47.372;8.512;2022-09-17T05:08:35;8.50;59.70
6443;DHT22;3254;47.372;8.512;2022-09-17T05:11:01;8.50;60.00
6443;DHT22;3254;47.372;8.512;2022-09-17T05:13:26;8.40;61.30
6443;DHT22;3254;47.372;8.512;2022-09-17T05:15:53;8.30;65.20
6443;DHT22;3254;47.372;8.512;2022-09-17T05:18:21;8.20;68.00
6443;DHT22;3254;47.372;8.512;2022-09-17T05:20:47;8.10;73.40
6443;DHT22;3254;47.372;8.512;2022-09-17T05:23:13;8.10;80.50
6443;DHT22;3254;47.372;8.512;2022-09-17T05:25:38;8.00;80.70
6443;DHT22;3254;47.372;8.512;2022-09-17T05:28:04;8.00;82.70
6443;DHT22;3254;47.372;8.512;2022-09-17T05:30:30;8.00;82.50
6443;DHT22;3254;47.372;8.512;2022-09-17T05:33:00;8.00;81.20
6443;DHT22;3254;47.372;8.512;2022-09-17T05:35:26;8.00;78.40
6443;DHT22;3254;47.372;8.512;2022-09-17T05:37:59;8.00;80.50
6443;DHT22;3254;47.372;8.512;2022-09-17T05:40:25;7.90;81.10
6443;DHT22;3254;47.372;8.512;2022-09-17T05:42:56;7.80;86.20
6443;DHT22;3254;47.372;8.512;2022-09-17T05:45:22;7.80;91.60
6443;DHT22;3254;47.372;8.512;2022-09-17T05:47:47;7.70;91.70
6443;DHT22;3254;47.372;8.512;2022-09-17T05:50:13;7.70;93.70
6443;DHT22;3254;47.372;8.512;2022-09-17T05:52:39;7.70;93.00
6443;DHT22;3254;47.372;8.512;2022-09-17T05:55:04;7.70;92.50
6443;DHT22;3254;47.372;8.512;2022-09-17T05:57:30;7.80;92.30
6443;DHT22;3254;47.372;8.512;2022-09-17T05:59:55;7.90;90.90
6443;DHT22;3254;47.372;8.512;2022-09-17T06:02:21;8.00;88.60
6443;DHT22;3254;47.372;8.512;2022-09-17T06:04:47;8.10;79.60
6443;DHT22;3254;47.372;8.512;2022-09-17T06:07:13;8.30;71.10
6443;DHT22;3254;47.372;8.512;2022-09-17T06:09:39;8.50;61.50
6443;DHT22;3254;47.372;8.512;2022-09-17T06:12:05;8.50;58.00
6443;DHT22;3254;47.372;8.512;2022-09-17T06:14:31;8.70;54.00
6443;DHT22;3254;47.372;8.512;2022-09-17T06:16:57;8.90;51.10
6443;DHT22;3254;47.372;8.512;2022-09-17T06:19:22;9.20;43.80
6443;DHT22;3254;47.372;8.512;2022-09-17T06:21:48;9.50;33.80
6443;DHT22;3254;47.372;8.512;2022-09-17T06:24:15;9.70;27.20
6443;DHT22;3254;47.372;8.512;2022-09-17T06:26:41;9.80;24.40
6443;DHT22;3254;47.372;8.512;2022-09-17T06:29:06;9.80;22.50
6443;DHT22;3254;47.372;8.512;2022-09-17T06:31:32;9.90;21.00
6443;DHT22;3254;47.372;8.512;2022-09-17T06:33:57;9.90;21.00
6443;DHT22;3254;47.372;8.512;2022-09-17T06:36:23;10.00;19.30
6443;DHT22;3254;47.372;8.512;2022-09-17T06:38:49;10.00;19.20
6443;DHT22;3254;47.372;8.512;2022-09-17T06:41:15;10.00;18.00
6443;DHT22;3254;47.372;8.512;2022-09-17T06:43:41;9.90;18.40
6443;DHT22;3254;47.372;8.512;2022-09-17T06:46:08;10.00;15.70
6443;DHT22;3254;47.372;8.512;2022-09-17T06:48:35;10.00;16.90
6443;DHT22;3254;47.372;8.512;2022-09-17T06:51:03;10.00;15.40
6443;DHT22;3254;47.372;8.512;2022-09-17T06:53:30;10.10;15.20
6443;DHT22;3254;47.372;8.512;2022-09-17T06:55:57;10.10;12.80
6443;DHT22;3254;47.372;8.512;2022-09-17T06:58:24;10.10;11.50
6443;DHT22;3254;47.372;8.512;2022-09-17T07:00:50;10.20;11.00
6443;DHT22;3254;47.372;8.512;2022-09-17T07:03:15;10.40;10.30
6443;DHT22;3254;47.372;8.512;2022-09-17T07:05:43;10.50;10.00
6443;DHT22;3254;47.372;8.512;2022-09-17T07:08:09;10.40;9.40
6443;DHT22;3254;47.372;8.512;2022-09-17T07:10:35;10.30;11.00
6443;DHT22;3254;47.372;8.512;2022-09-17T07:13:02;10.00;18.80
6443;DHT22;3254;47.372;8.512;2022-09-17T07:15:28;9.70;27.40
6443;DHT22;3254;47.372;8.512;2022-09-17T07:17:54;9.10;62.30
6443;DHT22;3254;47.372;8.512;2022-09-17T07:20:20;8.90;92.00
6443;DHT22;3254;47.372;8.512;2022-09-17T07:22:54;8.80;91.40
6443;DHT22;3254;47.372;8.512;2022-09-17T07:25:21;8.60;96.40
6443;DHT22;3254;47.372;8.512;2022-09-17T07:27:47;8.50;99.90
6443;DHT22;3254;47.372;8.512;2022-09-17T07:30:13;8.50;99.90
6443;DHT22;3254;47.372;8.512;2022-09-17T07:32:40;8.50;99.90
6443;DHT22;3254;47.372;8.512;2022-09-17T07:35:06;8.50;99.90
6443;DHT22;3254;47.372;8.512;2022-09-17T07:37:32;8.60;99.90
6443;DHT22;3254;47.372;8.512;2022-09-17T07:39:58;8.80;99.90
6443;DHT22;3254;47.372;8.512;2022-09-17T07:42:23;9.00;99.90
6443;DHT22;3254;47.372;8.512;2022-09-17T07:44:49;9.10;99.90
6443;DHT22;3254;47.372;8.512;2022-09-17T07:47:15;9.30;99.90
6443;DHT22;3254;47.372;8.512;2022-09-17T07:49:41;9.40;99.90
6443;DHT22;3254;47.372;8.512;2022-09-17T07:52:06;9.50;99.90
6443;DHT22;3254;47.372;8.512;2022-09-17T07:54:33;9.70;99.90
6443;DHT22;3254;47.372;8.512;2022-09-17T07:56:59;9.80;95.20
6443;DHT22;3254;47.372;8.512;2022-09-17T07:59:24;9.90;86.10
6443;DHT22;3254;47.372;8.512;2022-09-17T08:01:50;10.00;73.20
6443;DHT22;3254;47.372;8.512;2022-09-17T08:04:16;10.10;79.20
6443;DHT22;3254;47.372;8.512;2022-09-17T08:06:41;10.30;76.40
6443;DHT22;3254;47.372;8.512;2022-09-17T08:09:07;10.50;57.10
6443;DHT22;3254;47.372;8.512;2022-09-17T08:11:35;10.70;51.30
6443;DHT22;3254;47.372;8.512;2022-09-17T08:14:01;10.90;41.90
6443;DHT22;3254;47.372;8.512;2022-09-17T08:16:26;11.40;37.40
6443;DHT22;3254;47.372;8.512;2022-09-17T08:18:56;11.70;25.00
6443;DHT22;3254;47.372;8.512;2022-09-17T08:21:22;12.20;16.10
6443;DHT22;3254;47.372;8.512;2022-09-17T08:23:48;12.80;3.70
6443;DHT22;3254;47.372;8.512;2022-09-17T08:26:19;13.30;1.00
6443;DHT22;3254;47.372;8.512;2022-09-17T08:28:48;13.10;1.00
6443;DHT22;3254;47.372;8.512;2022-09-17T08:31:16;12.90;1.00
6443;DHT22;3254;47.372;8.512;2022-09-17T08:33:43;12.40;1.00
6443;DHT22;3254;47.372;8.512;2022-09-17T08:36:11;11.90;1.00
6443;DHT22;3254;47.372;8.512;2022-09-17T08:38:37;11.80;1.00
6443;DHT22;3254;47.372;8.512;2022-09-17T08:46:15;11.70;1.00
6443;DHT22;3254;47.372;8.512;2022-09-17T08:48:47;11.60;1.00
6443;DHT22;3254;47.372;8.512;2022-09-17T08:51:30;11.80;1.00
6443;DHT22;3254;47.372;8.512;2022-09-17T08:56:51;12.40;1.00
6443;DHT22;3254;47.372;8.512;2022-09-17T08:59:35;12.50;1.00
6443;DHT22;3254;47.372;8.512;2022-09-17T09:02:25;12.40;1.00
6443;DHT22;3254;47.372;8.512;2022-09-17T09:05:18;12.20;1.00
6443;DHT22;3254;47.372;8.512;2022-09-17T09:08:30;12.10;1.00
6443;DHT22;3254;47.372;8.512;2022-09-17T09:10:57;12.10;1.00
6443;DHT22;3254;47.372;8.512;2022-09-17T09:13:27;12.30;1.00
6443;DHT22;3254;47.372;8.512;2022-09-17T09:15:58;12.80;1.00
6443;DHT22;3254;47.372;8.512;2022-09-17T09:18:28;13.40;1.00
6443;DHT22;3254;47.372;8.512;2022-09-17T09:21:07;13.90;1.00
6443;DHT22;3254;47.372;8.512;2022-09-17T09:23:51;14.60;1.00
6443;DHT22;3254;47.372;8.512;2022-09-17T09:26:22;16.10;1.00
6443;DHT22;3254;47.372;8.512;2022-09-17T09:29:01;16.00;1.00
6443;DHT22;3254;47.372;8.512;2022-09-17T09:34:27;15.10;1.00
6443;DHT22;3254;47.372;8.512;2022-09-17T09:37:10;14.60;1.00
6443;DHT22;3254;47.372;8.512;2022-09-17T09:39:38;14.50;1.00
6443;DHT22;3254;47.372;8.512;2022-09-17T09:45:00;14.10;1.00
6443;DHT22;3254;47.372;8.512;2022-09-17T09:47:32;13.90;1.00
6443;DHT22;3254;47.372;8.512;2022-09-17T09:52:58;13.90;1.00
6443;DHT22;3254;47.372;8.512;2022-09-17T09:58:38;14.60;1.00
6443;DHT22;3254;47.372;8.512;2022-09-17T10:01:15;16.00;1.00
6443;DHT22;3254;47.372;8.512;2022-09-17T10:03:43;17.40;1.00
6443;DHT22;3254;47.372;8.512;2022-09-17T10:06:11;18.30;1.00
6443;DHT22;3254;47.372;8.512;2022-09-17T10:09:28;19.40;1.00
6443;DHT22;3254;47.372;8.512;2022-09-17T10:11:30;19.80;1.00
6443;DHT22;3254;47.372;8.512;2022-09-17T10:14:14;18.90;1.00
6443;DHT22;3254;47.372;8.512;2022-09-17T10:16:44;19.60;1.00
6443;DHT22;3254;47.372;8.512;2022-09-17T10:19:18;20.10;1.00
6443;DHT22;3254;47.372;8.512;2022-09-17T10:21:49;20.70;1.00
6443;DHT22;3254;47.372;8.512;2022-09-17T10:24:25;21.40;1.00
6443;DHT22;3254;47.372;8.512;2022-09-17T10:26:59;20.30;1.00
6443;DHT22;3254;47.372;8.512;2022-09-17T10:29:25;19.60;1.00
6443;DHT22;3254;47.372;8.512;2022-09-17T10:31:53;18.80;1.00
6443;DHT22;3254;47.372;8.512;2022-09-17T10:34:26;18.10;1.00
6443;DHT22;3254;47.372;8.512;2022-09-17T10:36:52;17.90;1.00
6443;DHT22;3254;47.372;8.512;2022-09-17T10:39:36;17.60;1.00
6443;DHT22;3254;47.372;8.512;2022-09-17T10:42:16;17.30;1.00
6443;DHT22;3254;47.372;8.512;2022-09-17T10:44:52;17.00;1.00
6443;DHT22;3254;47.372;8.512;2022-09-17T10:47:28;17.00;1.00
6443;DHT22;3254;47.372;8.512;2022-09-17T10:49:58;17.50;1.00
6443;DHT22;3254;47.372;8.512;2022-09-17T10:52:40;17.50;1.00
6443;DHT22;3254;47.372;8.512;2022-09-17T10:55:18;16.70;1.00
6443;DHT22;3254;47.372;8.512;2022-09-17T11:04:19;15.70;1.00
6443;DHT22;3254;47.372;8.512;2022-09-17T11:08:49;16.40;1.00
6443;DHT22;3254;47.372;8.512;2022-09-17T11:11:31;17.20;1.00
6443;DHT22;3254;47.372;8.512;2022-09-17T11:14:17;18.40;1.00
6443;DHT22;3254;47.372;8.512;2022-09-17T11:16:54;19.70;1.00
6443;DHT22;3254;47.372;8.512;2022-09-17T11:19:45;20.10;1.00
6443;DHT22;3254;47.372;8.512;2022-09-17T11:22:19;19.30;1.00
6443;DHT22;3254;47.372;8.512;2022-09-17T11:27:32;18.00;1.00
6443;DHT22;3254;47.372;8.512;2022-09-17T11:30:15;17.10;1.00
6443;DHT22;3254;47.372;8.512;2022-09-17T11:32:48;16.80;1.00
6443;DHT22;3254;47.372;8.512;2022-09-17T11:35:35;16.70;1.00
6443;DHT22;3254;47.372;8.512;2022-09-17T11:38:26;17.10;1.00
6443;DHT22;3254;47.372;8.512;2022-09-17T11:41:07;17.70;1.00
6443;DHT22;3254;47.372;8.512;2022-09-17T11:43:37;18.80;1.00
6443;DHT22;3254;47.372;8.512;2022-09-17T11:46:21;18.80;1.00
6443;DHT22;3254;47.372;8.512;2022-09-17T11:49:18;18.20;1.00
6443;DHT22;3254;47.372;8.512;2022-09-17T11:51:52;18.30;1.00
6443;DHT22;3254;47.372;8.512;2022-09-17T11:54:27;18.30;1.00
6443;DHT22;3254;47.372;8.512;2022-09-17T11:59:51;17.70;1.00
6443;DHT22;3254;47.372;8.512;2022-09-17T12:07:54;18.00;1.00
6443;DHT22;3254;47.372;8.512;2022-09-17T12:21:36;21.70;1.00
6443;DHT22;3254;47.372;8.512;2022-09-17T12:24:11;21.60;1.00
6443;DHT22;3254;47.372;8.512;2022-09-17T12:29:35;20.70;1.00
6443;DHT22;3254;47.372;8.512;2022-09-17T12:40:20;16.40;1.00
6443;DHT22;3254;47.372;8.512;2022-09-17T12:48:06;17.80;1.00
6443;DHT22;3254;47.372;8.512;2022-09-17T12:53:35;17.40;1.00
6443;DHT22;3254;47.372;8.512;2022-09-17T12:59:09;16.50;1.00
6443;DHT22;3254;47.372;8.512;2022-09-17T13:01:57;16.30;1.00
6443;DHT22;3254;47.372;8.512;2022-09-17T13:15:52;14.00;1.00
6443;DHT22;3254;47.372;8.512;2022-09-17T13:21:51;15.30;1.00
6443;DHT22;3254;47.372;8.512;2022-09-17T13:24:21;15.80;1.00
6443;DHT22;3254;47.372;8.512;2022-09-17T13:26:51;15.90;1.00
6443;DHT22;3254;47.372;8.512;2022-09-17T13:32:08;15.80;1.00
6443;DHT22;3254;47.372;8.512;2022-09-17T13:34:34;15.80;1.00
6443;DHT22;3254;47.372;8.512;2022-09-17T13:37:04;16.70;1.00
6443;DHT22;3254;47.372;8.512;2022-09-17T13:39:49;17.30;1.00
6443;DHT22;3254;47.372;8.512;2022-09-17T13:42:19;17.00;1.00
6443;DHT22;3254;47.372;8.512;2022-09-17T13:44:52;16.90;1.00
6443;DHT22;3254;47.372;8.512;2022-09-17T13:48:04;16.70;1.00
6443;DHT22;3254;47.372;8.512;2022-09-17T13:50:34;16.20;1.00
6443;DHT22;3254;47.372;8.512;2022-09-17T13:55:50;15.50;1.00
6443;DHT22;3254;47.372;8.512;2022-09-17T14:00:57;15.10;1.00
6443;DHT22;3254;47.372;8.512;2022-09-17T14:37:56;14.00;1.00
6443;DHT22;3254;47.372;8.512;2022-09-17T14:40:23;13.70;1.00
6443;DHT22;3254;47.372;8.512;2022-09-17T14:42:53;13.30;1.00
6443;DHT22;3254;47.372;8.512;2022-09-17T14:45:35;13.00;1.00
6443;DHT22;3254;47.372;8.512;2022-09-17T14:50:50;12.30;1.00
6443;DHT22;3254;47.372;8.512;2022-09-17T14:53:18;12.30;1.00
6443;DHT22;3254;47.372;8.512;2022-09-17T14:55:46;12.70;1.00
6443;DHT22;3254;47.372;8.512;2022-09-17T14:58:47;13.10;1.00
6443;DHT22;3254;47.372;8.512;2022-09-17T15:01:33;13.30;1.00
6443;DHT22;3254;47.372;8.512;2022-09-17T15:04:18;13.80;1.00
6443;DHT22;3254;47.372;8.512;2022-09-17T15:06:44;13.70;1.00
6443;DHT22;3254;47.372;8.512;2022-09-17T15:09:15;13.80;1.00
6443;DHT22;3254;47.372;8.512;2022-09-17T15:11:42;14.00;1.00
6443;DHT22;3254;47.372;8.512;2022-09-17T15:14:33;15.40;1.00
6443;DHT22;3254;47.372;8.512;2022-09-17T15:17:02;16.40;1.00
6443;DHT22;3254;47.372;8.512;2022-09-17T15:19:32;16.10;1.00
6443;DHT22;3254;47.372;8.512;2022-09-17T15:22:47;16.00;1.00
6443;DHT22;3254;47.372;8.512;2022-09-17T15:27:44;14.40;1.00
6443;DHT22;3254;47.372;8.512;2022-09-17T15:30:17;14.30;1.00
6443;DHT22;3254;47.372;8.512;2022-09-17T15:32:55;14.30;1.00
6443;DHT22;3254;47.372;8.512;2022-09-17T15:38:25;16.90;1.00
6443;DHT22;3254;47.372;8.512;2022-09-17T15:40:51;17.80;1.00
6443;DHT22;3254;47.372;8.512;2022-09-17T15:43:32;18.70;1.00
6443;DHT22;3254;47.372;8.512;2022-09-17T15:46:21;19.00;1.00
6443;DHT22;3254;47.372;8.512;2022-09-17T15:48:48;20.50;1.00
6443;DHT22;3254;47.372;8.512;2022-09-17T15:53:55;19.50;1.00
6443;DHT22;3254;47.372;8.512;2022-09-17T15:56:27;18.60;1.00
6443;DHT22;3254;47.372;8.512;2022-09-17T15:59:23;19.00;1.00
6443;DHT22;3254;47.372;8.512;2022-09-17T16:01:53;19.10;1.00
6443;DHT22;3254;47.372;8.512;2022-09-17T16:04:22;19.60;1.00
6443;DHT22;3254;47.372;8.512;2022-09-17T16:09:44;20.80;1.00
6443;DHT22;3254;47.372;8.512;2022-09-17T16:12:46;20.00;1.00
6443;DHT22;3254;47.372;8.512;2022-09-17T16:15:05;19.10;1.00
6443;DHT22;3254;47.372;8.512;2022-09-17T16:20:27;17.20;1.00
6443;DHT22;3254;47.372;8.512;2022-09-17T16:22:54;16.60;1.00
6443;DHT22;3254;47.372;8.512;2022-09-17T16:25:26;16.30;1.00
6443;DHT22;3254;47.372;8.512;2022-09-17T16:27:56;15.60;1.00
6443;DHT22;3254;47.372;8.512;2022-09-17T16:30:22;15.30;1.00
6443;DHT22;3254;47.372;8.512;2022-09-17T16:32:49;15.00;1.00
6443;DHT22;3254;47.372;8.512;2022-09-17T16:35:19;14.70;1.00
6443;DHT22;3254;47.372;8.512;2022-09-17T16:37:50;14.50;1.00
6443;DHT22;3254;47.372;8.512;2022-09-17T16:40:16;14.30;1.00
6443;DHT22;3254;47.372;8.512;2022-09-17T16:42:41;14.10;1.00
6443;DHT22;3254;47.372;8.512;2022-09-17T16:45:07;13.90;1.00
6443;DHT22;3254;47.372;8.512;2022-09-17T16:47:38;13.80;1.00
6443;DHT22;3254;47.372;8.512;2022-09-17T16:50:06;13.80;1.00
6443;DHT22;3254;47.372;8.512;2022-09-17T16:52:33;14.30;1.00
6443;DHT22;3254;47.372;8.512;2022-09-17T16:54:59;14.30;1.00
6443;DHT22;3254;47.372;8.512;2022-09-17T16:57:25;14.00;1.00
6443;DHT22;3254;47.372;8.512;2022-09-17T16:59:50;13.90;1.00
6443;DHT22;3254;47.372;8.512;2022-09-17T17:02:16;13.70;1.00
6443;DHT22;3254;47.372;8.512;2022-09-17T17:04:42;13.40;1.00
6443;DHT22;3254;47.372;8.512;2022-09-17T17:07:07;13.20;1.00
6443;DHT22;3254;47.372;8.512;2022-09-17T17:09:33;13.00;1.00
6443;DHT22;3254;47.372;8.512;2022-09-17T17:11:58;12.80;1.00
6443;DHT22;3254;47.372;8.512;2022-09-17T17:14:24;12.70;1.00
6443;DHT22;3254;47.372;8.512;2022-09-17T17:16:50;12.60;1.00
6443;DHT22;3254;47.372;8.512;2022-09-17T17:19:16;12.50;1.00
6443;DHT22;3254;47.372;8.512;2022-09-17T17:21:42;12.50;1.00
6443;DHT22;3254;47.372;8.512;2022-09-17T17:24:07;12.40;1.00
6443;DHT22;3254;47.372;8.512;2022-09-17T17:26:33;12.40;1.00
6443;DHT22;3254;47.372;8.512;2022-09-17T17:28:59;12.30;1.00
6443;DHT22;3254;47.372;8.512;2022-09-17T17:31:25;12.20;1.00
6443;DHT22;3254;47.372;8.512;2022-09-17T17:33:51;12.20;1.00
6443;DHT22;3254;47.372;8.512;2022-09-17T17:36:16;12.20;1.00
6443;DHT22;3254;47.372;8.512;2022-09-17T17:38:42;12.20;1.00
6443;DHT22;3254;47.372;8.512;2022-09-17T17:41:10;12.20;1.00
6443;DHT22;3254;47.372;8.512;2022-09-17T17:43:36;12.20;1.00
6443;DHT22;3254;47.372;8.512;2022-09-17T17:46:06;12.20;1.00
6443;DHT22;3254;47.372;8.512;2022-09-17T17:48:32;12.20;1.00
6443;DHT22;3254;47.372;8.512;2022-09-17T17:51:02;12.10;1.00
6443;DHT22;3254;47.372;8.512;2022-09-17T17:53:28;12.10;1.00
6443;DHT22;3254;47.372;8.512;2022-09-17T17:55:58;12.10;1.00
6443;DHT22;3254;47.372;8.512;2022-09-17T17:58:25;12.00;1.00
6443;DHT22;3254;47.372;8.512;2022-09-17T18:00:51;12.00;1.00
6443;DHT22;3254;47.372;8.512;2022-09-17T18:03:16;12.00;1.00
6443;DHT22;3254;47.372;8.512;2022-09-17T18:05:42;11.90;1.00
6443;DHT22;3254;47.372;8.512;2022-09-17T18:08:08;11.80;1.00
6443;DHT22;3254;47.372;8.512;2022-09-17T18:10:33;11.80;1.00
6443;DHT22;3254;47.372;8.512;2022-09-17T18:12:59;11.70;1.00
6443;DHT22;3254;47.372;8.512;2022-09-17T18:15:25;11.60;1.00
6443;DHT22;3254;47.372;8.512;2022-09-17T18:17:51;11.60;1.00
6443;DHT22;3254;47.372;8.512;2022-09-17T18:20:18;11.50;1.00
6443;DHT22;3254;47.372;8.512;2022-09-17T18:22:44;11.50;1.00
6443;DHT22;3254;47.372;8.512;2022-09-17T18:25:09;11.30;1.00
6443;DHT22;3254;47.372;8.512;2022-09-17T18:27:35;11.20;1.00
6443;DHT22;3254;47.372;8.512;2022-09-17T18:30:00;11.10;1.00
6443;DHT22;3254;47.372;8.512;2022-09-17T18:32:26;11.10;1.00
6443;DHT22;3254;47.372;8.512;2022-09-17T18:34:52;11.20;1.00
6443;DHT22;3254;47.372;8.512;2022-09-17T18:37:17;11.20;1.00
6443;DHT22;3254;47.372;8.512;2022-09-17T18:39:43;11.30;1.00
6443;DHT22;3254;47.372;8.512;2022-09-17T18:42:09;11.30;1.00
6443;DHT22;3254;47.372;8.512;2022-09-17T18:44:34;11.30;1.00
6443;DHT22;3254;47.372;8.512;2022-09-17T18:47:00;11.30;1.00
6443;DHT22;3254;47.372;8.512;2022-09-17T18:49:26;11.30;1.00
6443;DHT22;3254;47.372;8.512;2022-09-17T18:51:51;11.30;1.00
6443;DHT22;3254;47.372;8.512;2022-09-17T18:54:17;11.30;1.00
6443;DHT22;3254;47.372;8.512;2022-09-17T18:56:42;11.30;1.00
6443;DHT22;3254;47.372;8.512;2022-09-17T18:59:09;11.30;1.00
6443;DHT22;3254;47.372;8.512;2022-09-17T19:01:35;11.30;1.00
6443;DHT22;3254;47.372;8.512;2022-09-17T19:04:01;11.30;1.00
6443;DHT22;3254;47.372;8.512;2022-09-17T19:06:27;11.30;1.00
6443;DHT22;3254;47.372;8.512;2022-09-17T19:08:57;11.30;1.00
6443;DHT22;3254;47.372;8.512;2022-09-17T19:11:23;11.30;1.00
6443;DHT22;3254;47.372;8.512;2022-09-17T19:13:48;11.30;1.00
6443;DHT22;3254;47.372;8.512;2022-09-17T19:16:15;11.30;1.00
6443;DHT22;3254;47.372;8.512;2022-09-17T19:18:40;11.20;1.00
6443;DHT22;3254;47.372;8.512;2022-09-17T19:21:07;11.20;1.00
6443;DHT22;3254;47.372;8.512;2022-09-17T19:23:34;11.20;1.00
6443;DHT22;3254;47.372;8.512;2022-09-17T19:26:11;11.20;1.00
6443;DHT22;3254;47.372;8.512;2022-09-17T19:28:37;11.20;1.00
6443;DHT22;3254;47.372;8.512;2022-09-17T19:31:05;11.10;1.00
6443;DHT22;3254;47.372;8.512;2022-09-17T19:33:31;11.00;1.00
6443;DHT22;3254;47.372;8.512;2022-09-17T19:36:01;10.80;1.00
6443;DHT22;3254;47.372;8.512;2022-09-17T19:38:27;10.50;1.00
6443;DHT22;3254;47.372;8.512;2022-09-17T19:41:01;10.20;1.00
6443;DHT22;3254;47.372;8.512;2022-09-17T19:43:28;9.90;1.00
6443;DHT22;3254;47.372;8.512;2022-09-17T19:46:01;9.60;2.30